createdAt,value
2024-02-16T00:02:12.939Z,27.20
2024-02-16T00:07:35.219Z,25.80
2024-02-16T00:18:54.652Z,25.08
2024-02-16T00:24:16.568Z,26.35
2024-02-16T00:29:38.339Z,24.80
2024-02-16T00:35:00.192Z,24.98
2024-02-16T00:40:22.025Z,22.48
2024-02-16T00:45:43.816Z,20.45
2024-02-16T00:51:05.769Z,24.38
2024-02-16T00:56:27.566Z,25.02
2024-02-16T01:01:49.306Z,22.17
2024-02-16T01:07:11.140Z,21.63
2024-02-16T01:12:44.676Z,21.92
2024-02-16T01:18:06.542Z,20.90
2024-02-16T01:23:46.631Z,20.25
2024-02-16T01:29:08.402Z,18.48
2024-02-16T01:34:30.254Z,17.33
2024-02-16T01:39:52.115Z,17.52
2024-02-16T01:45:14.489Z,20.52
2024-02-16T01:50:38.175Z,18.02
2024-02-16T01:56:00.470Z,13.82
2024-02-16T02:01:22.284Z,14.60
2024-02-16T02:06:44.259Z,16.42
2024-02-16T02:12:06.374Z,17.08
2024-02-16T02:17:28.328Z,16.05
2024-02-16T02:22:50.140Z,16.55
2024-02-16T02:28:11.889Z,16.27
2024-02-16T02:33:33.844Z,16.50
2024-02-16T02:38:55.740Z,17.08
2024-02-16T02:44:17.527Z,14.70
2024-02-16T02:49:39.380Z,15.20
2024-02-16T02:55:01.187Z,14.82
2024-02-16T03:00:23.064Z,14.43
2024-02-16T03:05:44.920Z,13.52
2024-02-16T03:11:06.706Z,15.35
2024-02-16T03:16:28.464Z,16.05
2024-02-16T03:21:50.416Z,13.55
2024-02-16T03:27:13.181Z,15.57
2024-02-16T03:32:35.184Z,15.48
2024-02-16T03:37:57.025Z,14.60
2024-02-16T03:43:18.802Z,13.13
2024-02-16T03:48:40.689Z,14.15
2024-02-16T03:54:02.588Z,14.02
2024-02-16T03:59:25.262Z,13.68
2024-02-16T04:04:47.074Z,15.68
2024-02-16T04:10:09.236Z,14.82
2024-02-16T04:15:31.146Z,17.80
2024-02-16T04:20:53.061Z,13.07
2024-02-16T04:26:14.853Z,16.48
2024-02-16T04:31:36.619Z,15.23
2024-02-16T04:36:58.412Z,14.90
2024-02-16T04:42:20.200Z,15.38
2024-02-16T04:47:42.016Z,14.43
2024-02-16T04:53:04.022Z,14.65
2024-02-16T04:58:25.838Z,14.50
2024-02-16T05:03:47.631Z,14.57
2024-02-16T05:09:09.820Z,15.70
2024-02-16T05:14:31.626Z,16.33
2024-02-16T05:19:53.492Z,17.60
2024-02-16T05:25:16.043Z,15.73
2024-02-16T05:30:37.858Z,16.35
2024-02-16T05:35:59.611Z,15.82
2024-02-16T05:41:21.713Z,18.05
2024-02-16T05:46:45.804Z,16.95
2024-02-16T05:52:07.586Z,17.17
2024-02-16T05:57:29.389Z,20.02
2024-02-16T06:02:51.247Z,20.33
2024-02-16T06:08:14.002Z,16.33
2024-02-16T06:13:35.744Z,16.75
2024-02-16T06:18:57.551Z,20.05
2024-02-16T06:24:19.408Z,20.02
2024-02-16T06:29:41.376Z,14.90
2024-02-16T06:35:03.316Z,16.13
2024-02-16T06:40:25.077Z,18.08
2024-02-16T06:45:46.884Z,16.70
2024-02-16T06:51:11.380Z,19.23
2024-02-16T06:56:33.442Z,18.75
2024-02-16T07:01:55.201Z,21.00
2024-02-16T07:07:17.181Z,20.00
2024-02-16T07:12:39.100Z,20.85
2024-02-16T07:18:01.072Z,20.20
2024-02-16T07:23:24.069Z,16.92
2024-02-16T07:28:46.144Z,15.15
2024-02-16T07:34:08.015Z,15.70
2024-02-16T07:39:29.948Z,14.00
2024-02-16T07:44:54.380Z,17.23
2024-02-16T07:50:22.219Z,18.15
2024-02-16T07:55:43.974Z,12.82
2024-02-16T08:01:05.792Z,14.98
2024-02-16T08:06:27.939Z,13.48
2024-02-16T08:11:49.896Z,13.05
2024-02-16T08:17:19.021Z,14.48
2024-02-16T08:22:41.826Z,15.40
2024-02-16T08:28:03.765Z,16.15
2024-02-16T08:33:25.734Z,18.10
2024-02-16T08:38:47.687Z,16.80
2024-02-16T08:44:09.475Z,15.98
2024-02-16T08:49:31.291Z,14.77
2024-02-16T08:54:53.205Z,20.48
2024-02-16T09:00:15.514Z,17.88
2024-02-16T09:05:37.314Z,21.27
2024-02-16T09:10:59.164Z,18.98
2024-02-16T09:16:23.582Z,17.50
2024-02-16T09:21:47.029Z,19.07
2024-02-16T09:27:08.838Z,12.73
2024-02-16T09:32:30.625Z,19.88
2024-02-16T09:37:52.486Z,18.15
2024-02-16T09:43:32.000Z,14.30
2024-02-16T09:48:55.557Z,16.52
2024-02-16T09:54:17.576Z,13.27
2024-02-16T09:59:57.808Z,17.35
2024-02-16T10:05:22.929Z,16.13
2024-02-16T10:10:44.934Z,13.20
2024-02-16T10:16:11.060Z,18.10
2024-02-16T10:21:33.652Z,16.92
2024-02-16T10:26:55.933Z,18.13
2024-02-16T10:32:18.146Z,14.35
2024-02-16T10:37:39.890Z,12.80
2024-02-16T10:43:07.988Z,14.23
2024-02-16T10:48:29.804Z,13.95
2024-02-16T10:53:54.839Z,11.98
2024-02-16T10:59:17.480Z,12.77
2024-02-16T11:04:40.598Z,13.45
2024-02-16T11:10:02.977Z,11.80
2024-02-16T11:15:35.037Z,9.98
2024-02-16T11:21:00.883Z,11.45
2024-02-16T11:26:23.830Z,11.35
2024-02-16T11:31:46.938Z,11.15
2024-02-16T11:37:08.670Z,14.60
2024-02-16T11:42:30.454Z,12.65
2024-02-16T11:47:52.376Z,21.35
2024-02-16T11:53:18.626Z,12.88
2024-02-16T11:58:40.416Z,13.45
2024-02-16T12:04:02.164Z,12.95
2024-02-16T12:09:24.485Z,14.05
2024-02-16T12:14:46.264Z,15.55
2024-02-16T12:20:17.352Z,17.20
2024-02-16T12:25:39.352Z,14.30
2024-02-16T12:31:04.090Z,17.10
2024-02-16T12:36:26.376Z,14.65
2024-02-16T12:41:48.360Z,15.18
2024-02-16T12:47:10.914Z,18.13
2024-02-16T12:52:32.688Z,19.13
2024-02-16T12:57:54.600Z,13.68
2024-02-16T13:03:16.483Z,13.95
2024-02-16T13:08:38.409Z,17.50
2024-02-16T13:14:00.355Z,12.38
2024-02-16T13:19:22.299Z,13.27
2024-02-16T13:24:44.170Z,15.18
2024-02-16T13:30:06.800Z,12.88
2024-02-16T13:35:28.633Z,14.10
2024-02-16T13:40:50.751Z,13.77
2024-02-16T13:46:12.600Z,16.90
2024-02-16T13:51:34.475Z,14.40
2024-02-16T14:13:54.540Z,14.10
2024-02-16T14:19:16.448Z,14.20
2024-02-16T14:24:38.349Z,11.18
2024-02-16T14:30:00.529Z,11.70
2024-02-16T14:35:22.356Z,13.40
2024-02-16T14:40:44.207Z,14.45
2024-02-16T14:46:06.117Z,10.65
2024-02-16T14:51:33.971Z,9.05
2024-02-16T14:57:13.936Z,11.32
2024-02-16T15:08:26.887Z,10.27
2024-02-16T15:13:57.853Z,12.07
2024-02-16T15:19:38.014Z,10.68
2024-02-16T15:25:02.873Z,13.05
2024-02-16T15:30:24.693Z,10.45
2024-02-16T15:35:46.489Z,10.75
2024-02-16T15:41:08.307Z,12.38
2024-02-16T15:46:30.140Z,9.88
2024-02-16T15:51:51.996Z,14.68
2024-02-16T15:57:13.796Z,15.00
2024-02-16T16:02:35.589Z,12.70
2024-02-16T16:07:57.339Z,16.70
2024-02-16T16:13:19.948Z,10.18
2024-02-16T16:18:41.695Z,13.35
2024-02-16T16:24:03.815Z,11.52
2024-02-16T16:29:25.620Z,12.20
2024-02-16T16:34:47.460Z,13.48
2024-02-16T16:40:09.840Z,11.65
2024-02-16T16:45:32.149Z,13.10
2024-02-16T16:50:53.940Z,10.13
2024-02-16T16:56:15.724Z,13.57
2024-02-16T17:01:37.463Z,13.57
2024-02-16T17:07:02.407Z,13.15
2024-02-16T17:12:27.450Z,13.77
2024-02-16T17:17:49.302Z,14.07
2024-02-16T17:23:11.110Z,13.95
2024-02-16T17:28:32.818Z,13.82
2024-02-16T17:33:54.650Z,14.90
2024-02-16T17:39:17.169Z,14.52
2024-02-16T17:44:38.888Z,16.20
2024-02-16T17:50:00.752Z,15.98
2024-02-16T17:55:41.032Z,18.20
2024-02-16T18:01:03.475Z,17.30
2024-02-16T18:06:25.312Z,17.92
2024-02-16T18:11:47.115Z,18.52
2024-02-16T18:17:09.544Z,19.08
2024-02-16T18:22:31.304Z,19.13
2024-02-16T18:27:59.446Z,19.17
2024-02-16T18:33:21.329Z,20.88
2024-02-16T18:38:43.158Z,20.52
2024-02-16T18:44:05.089Z,17.48
2024-02-16T18:49:26.857Z,20.70
2024-02-16T18:54:48.743Z,19.35
2024-02-16T19:00:11.120Z,22.20
2024-02-16T19:05:32.872Z,20.88
2024-02-16T19:10:54.700Z,18.98
2024-02-16T19:16:16.526Z,22.20
2024-02-16T19:21:38.316Z,22.67
2024-02-16T19:27:00.185Z,20.50
2024-02-16T19:32:21.953Z,22.75
2024-02-16T19:37:43.735Z,24.45
2024-02-16T19:43:05.484Z,22.95
2024-02-16T19:48:27.502Z,21.38
2024-02-16T19:53:49.628Z,21.73
2024-02-16T19:59:11.337Z,24.25
2024-02-16T20:04:33.129Z,25.05
2024-02-16T20:21:23.295Z,22.50
2024-02-16T20:26:45.270Z,24.02
2024-02-16T20:49:05.658Z,27.35
2024-02-16T20:54:27.663Z,27.27
2024-02-16T20:59:49.569Z,26.27
2024-02-16T21:05:11.320Z,27.13
2024-02-16T21:10:33.150Z,26.75
2024-02-16T21:15:54.951Z,25.35
2024-02-16T21:21:16.803Z,27.30
2024-02-16T21:26:38.621Z,27.55
2024-02-16T21:32:00.399Z,31.35
2024-02-16T21:37:22.192Z,25.10
2024-02-16T21:42:43.970Z,29.13
2024-02-16T21:48:06.193Z,27.08
2024-02-16T21:53:28.029Z,29.17
2024-02-16T21:58:50.203Z,28.30
2024-02-16T22:04:12.170Z,29.38
2024-02-16T22:09:34.030Z,28.55
2024-02-16T22:14:55.888Z,26.83
2024-02-16T22:20:17.793Z,28.05
2024-02-16T22:25:39.513Z,26.58
2024-02-16T22:31:01.677Z,28.33
2024-02-16T22:42:08.950Z,27.73
2024-02-16T22:47:31.473Z,29.02
2024-02-16T22:52:53.312Z,27.98
2024-02-16T22:58:17.692Z,27.88
2024-02-16T23:03:39.474Z,24.98
2024-02-16T23:14:40.471Z,27.70
2024-02-16T23:20:05.149Z,28.92
2024-02-16T23:25:30.914Z,29.83
2024-02-16T23:30:55.560Z,28.53
2024-02-16T23:36:32.465Z,30.08
2024-02-16T23:42:12.291Z,25.23
2024-02-16T23:47:36.909Z,27.27
2024-02-16T23:53:01.947Z,27.80
2024-02-16T23:58:23.669Z,28.98
